Terminal Aerodrome Forecast
Issued by NWS Wakefield, VA

Home | Current Version | Previous Version | Text Only | Print | Product List | Glossary On
Versions: 1 2 3 4 5 6 7 8 9 10 11 12 13 14 15 16 17 18 19 20
294
FTUS41 KAKQ 080537
TAFSBY
TAF
KSBY 080537Z 0806/0906 00000KT P6SM SKC
     FM080800 00000KT 5SM BR SKC
     FM081000 33003KT P6SM BKN100
     FM081800 30007KT P6SM BKN080
     FM082200 28010KT P6SM SCT250=

USA.gov is the U.S. government's official web portal to all federal, state and local government web resources and services.